sensor_id;sensor_type;location;lat;lon;timestamp;P1;durP1;ratioP1;P2;durP2;ratioP2
42186;SDS011;27858;51.414;0.018;2023-08-12T00:01:59;3.90;;;1.35;;
42186;SDS011;27858;51.414;0.018;2023-08-12T00:04:26;2.00;;;1.42;;
42186;SDS011;27858;51.414;0.018;2023-08-12T00:06:53;6.28;;;2.00;;
42186;SDS011;27858;51.414;0.018;2023-08-12T00:09:20;5.65;;;2.05;;
42186;SDS011;27858;51.414;0.018;2023-08-12T00:11:46;6.53;;;1.58;;
42186;SDS011;27858;51.414;0.018;2023-08-12T00:14:13;6.28;;;1.52;;
42186;SDS011;27858;51.414;0.018;2023-08-12T00:16:40;3.53;;;1.50;;
42186;SDS011;27858;51.414;0.018;2023-08-12T00:19:07;2.60;;;1.10;;
42186;SDS011;27858;51.414;0.018;2023-08-12T00:21:35;5.45;;;1.50;;
42186;SDS011;27858;51.414;0.018;2023-08-12T00:24:01;6.18;;;1.67;;
42186;SDS011;27858;51.414;0.018;2023-08-12T00:26:28;5.07;;;1.48;;
42186;SDS011;27858;51.414;0.018;2023-08-12T00:28:55;3.88;;;1.80;;
42186;SDS011;27858;51.414;0.018;2023-08-12T00:31:22;3.60;;;1.65;;
42186;SDS011;27858;51.414;0.018;2023-08-12T00:33:49;2.38;;;1.27;;
42186;SDS011;27858;51.414;0.018;2023-08-12T00:36:15;1.45;;;1.02;;
42186;SDS011;27858;51.414;0.018;2023-08-12T00:38:42;2.95;;;1.30;;
42186;SDS011;27858;51.414;0.018;2023-08-12T00:41:09;4.85;;;1.50;;
42186;SDS011;27858;51.414;0.018;2023-08-12T00:43:36;3.55;;;1.33;;
42186;SDS011;27858;51.414;0.018;2023-08-12T00:46:03;5.80;;;1.85;;
42186;SDS011;27858;51.414;0.018;2023-08-12T00:48:30;4.45;;;1.33;;
42186;SDS011;27858;51.414;0.018;2023-08-12T00:50:57;7.40;;;2.03;;
42186;SDS011;27858;51.414;0.018;2023-08-12T00:53:24;3.95;;;1.60;;
42186;SDS011;27858;51.414;0.018;2023-08-12T00:55:51;2.03;;;1.17;;
42186;SDS011;27858;51.414;0.018;2023-08-12T00:58:18;1.83;;;1.17;;
42186;SDS011;27858;51.414;0.018;2023-08-12T01:00:45;4.07;;;1.55;;
42186;SDS011;27858;51.414;0.018;2023-08-12T01:03:12;2.95;;;1.23;;
42186;SDS011;27858;51.414;0.018;2023-08-12T01:05:39;2.45;;;1.17;;
42186;SDS011;27858;51.414;0.018;2023-08-12T01:08:07;3.25;;;1.17;;
42186;SDS011;27858;51.414;0.018;2023-08-12T01:10:35;10.52;;;2.33;;
42186;SDS011;27858;51.414;0.018;2023-08-12T01:15:56;6.55;;;2.03;;
42186;SDS011;27858;51.414;0.018;2023-08-12T01:18:25;3.05;;;1.45;;
42186;SDS011;27858;51.414;0.018;2023-08-12T01:20:52;3.60;;;1.13;;
42186;SDS011;27858;51.414;0.018;2023-08-12T01:23:19;2.97;;;1.02;;
42186;SDS011;27858;51.414;0.018;2023-08-12T01:25:47;1.60;;;1.13;;
42186;SDS011;27858;51.414;0.018;2023-08-12T01:28:13;3.78;;;1.50;;
42186;SDS011;27858;51.414;0.018;2023-08-12T01:31:23;6.95;;;1.27;;
42186;SDS011;27858;51.414;0.018;2023-08-12T01:34:06;2.38;;;1.30;;
42186;SDS011;27858;51.414;0.018;2023-08-12T01:36:58;2.05;;;1.20;;
42186;SDS011;27858;51.414;0.018;2023-08-12T01:39:26;4.28;;;2.00;;
42186;SDS011;27858;51.414;0.018;2023-08-12T01:41:54;5.85;;;1.45;;
42186;SDS011;27858;51.414;0.018;2023-08-12T01:44:21;3.22;;;1.17;;
42186;SDS011;27858;51.414;0.018;2023-08-12T01:46:48;3.22;;;1.67;;
42186;SDS011;27858;51.414;0.018;2023-08-12T01:49:15;2.83;;;1.10;;
42186;SDS011;27858;51.414;0.018;2023-08-12T01:51:42;4.35;;;1.90;;
42186;SDS011;27858;51.414;0.018;2023-08-12T01:54:09;4.28;;;1.38;;
42186;SDS011;27858;51.414;0.018;2023-08-12T01:56:36;3.42;;;2.00;;
42186;SDS011;27858;51.414;0.018;2023-08-12T01:59:03;3.33;;;1.50;;
42186;SDS011;27858;51.414;0.018;2023-08-12T02:01:30;4.90;;;1.50;;
42186;SDS011;27858;51.414;0.018;2023-08-12T02:03:57;4.18;;;1.88;;
42186;SDS011;27858;51.414;0.018;2023-08-12T02:06:24;10.25;;;1.58;;
42186;SDS011;27858;51.414;0.018;2023-08-12T02:08:50;2.28;;;1.63;;
42186;SDS011;27858;51.414;0.018;2023-08-12T02:11:17;4.13;;;1.73;;
42186;SDS011;27858;51.414;0.018;2023-08-12T02:13:44;8.40;;;2.00;;
42186;SDS011;27858;51.414;0.018;2023-08-12T02:16:11;3.78;;;1.77;;
42186;SDS011;27858;51.414;0.018;2023-08-12T02:18:37;9.70;;;2.45;;
42186;SDS011;27858;51.414;0.018;2023-08-12T02:21:04;2.15;;;1.42;;
42186;SDS011;27858;51.414;0.018;2023-08-12T02:23:31;5.60;;;1.52;;
42186;SDS011;27858;51.414;0.018;2023-08-12T02:25:57;4.65;;;1.98;;
42186;SDS011;27858;51.414;0.018;2023-08-12T02:28:24;3.28;;;1.40;;
42186;SDS011;27858;51.414;0.018;2023-08-12T02:30:51;7.70;;;1.30;;
42186;SDS011;27858;51.414;0.018;2023-08-12T02:33:18;3.60;;;1.55;;
42186;SDS011;27858;51.414;0.018;2023-08-12T02:35:45;5.05;;;1.70;;
42186;SDS011;27858;51.414;0.018;2023-08-12T02:38:11;9.18;;;2.17;;
42186;SDS011;27858;51.414;0.018;2023-08-12T02:40:38;2.45;;;1.63;;
42186;SDS011;27858;51.414;0.018;2023-08-12T02:43:05;4.22;;;2.15;;
42186;SDS011;27858;51.414;0.018;2023-08-12T02:45:32;14.68;;;2.22;;
42186;SDS011;27858;51.414;0.018;2023-08-12T02:47:58;3.00;;;1.73;;
42186;SDS011;27858;51.414;0.018;2023-08-12T02:50:25;4.15;;;1.50;;
42186;SDS011;27858;51.414;0.018;2023-08-12T02:52:52;4.80;;;2.28;;
42186;SDS011;27858;51.414;0.018;2023-08-12T02:55:19;3.30;;;1.90;;
42186;SDS011;27858;51.414;0.018;2023-08-12T02:57:45;6.15;;;2.65;;
42186;SDS011;27858;51.414;0.018;2023-08-12T03:00:12;3.83;;;2.15;;
42186;SDS011;27858;51.414;0.018;2023-08-12T03:02:43;4.45;;;1.92;;
42186;SDS011;27858;51.414;0.018;2023-08-12T03:05:10;7.03;;;2.30;;
42186;SDS011;27858;51.414;0.018;2023-08-12T03:07:37;4.47;;;2.25;;
42186;SDS011;27858;51.414;0.018;2023-08-12T03:10:04;3.05;;;1.60;;
42186;SDS011;27858;51.414;0.018;2023-08-12T03:12:31;3.25;;;1.50;;
42186;SDS011;27858;51.414;0.018;2023-08-12T03:14:58;8.45;;;2.22;;
42186;SDS011;27858;51.414;0.018;2023-08-12T03:17:24;7.13;;;2.25;;
42186;SDS011;27858;51.414;0.018;2023-08-12T03:19:51;7.88;;;1.95;;
42186;SDS011;27858;51.414;0.018;2023-08-12T03:22:20;13.30;;;3.53;;
42186;SDS011;27858;51.414;0.018;2023-08-12T03:24:47;5.80;;;1.90;;
42186;SDS011;27858;51.414;0.018;2023-08-12T03:27:14;3.10;;;2.28;;
42186;SDS011;27858;51.414;0.018;2023-08-12T03:29:41;3.83;;;2.30;;
42186;SDS011;27858;51.414;0.018;2023-08-12T03:32:08;9.63;;;3.05;;
42186;SDS011;27858;51.414;0.018;2023-08-12T03:34:35;4.05;;;1.80;;
42186;SDS011;27858;51.414;0.018;2023-08-12T03:37:01;6.68;;;2.75;;
42186;SDS011;27858;51.414;0.018;2023-08-12T03:39:28;6.13;;;2.45;;
42186;SDS011;27858;51.414;0.018;2023-08-12T03:41:55;5.90;;;2.72;;
42186;SDS011;27858;51.414;0.018;2023-08-12T03:44:22;4.18;;;1.90;;
42186;SDS011;27858;51.414;0.018;2023-08-12T03:46:48;7.53;;;3.88;;
42186;SDS011;27858;51.414;0.018;2023-08-12T03:49:15;10.75;;;3.72;;
42186;SDS011;27858;51.414;0.018;2023-08-12T03:51:45;6.57;;;2.92;;
42186;SDS011;27858;51.414;0.018;2023-08-12T03:54:12;4.40;;;2.50;;
42186;SDS011;27858;51.414;0.018;2023-08-12T03:56:38;5.07;;;3.13;;
42186;SDS011;27858;51.414;0.018;2023-08-12T03:59:05;7.50;;;2.97;;
42186;SDS011;27858;51.414;0.018;2023-08-12T04:01:32;6.90;;;2.65;;
42186;SDS011;27858;51.414;0.018;2023-08-12T04:03:59;6.00;;;3.28;;
42186;SDS011;27858;51.414;0.018;2023-08-12T04:06:25;7.75;;;3.17;;
42186;SDS011;27858;51.414;0.018;2023-08-12T04:08:52;9.88;;;3.85;;
42186;SDS011;27858;51.414;0.018;2023-08-12T04:11:19;8.05;;;4.25;;
42186;SDS011;27858;51.414;0.018;2023-08-12T04:13:45;10.32;;;3.67;;
42186;SDS011;27858;51.414;0.018;2023-08-12T04:16:12;8.98;;;3.35;;
42186;SDS011;27858;51.414;0.018;2023-08-12T04:18:39;5.70;;;3.67;;
42186;SDS011;27858;51.414;0.018;2023-08-12T04:21:06;11.75;;;3.63;;
42186;SDS011;27858;51.414;0.018;2023-08-12T04:23:33;7.80;;;4.18;;
42186;SDS011;27858;51.414;0.018;2023-08-12T04:25:59;7.38;;;2.80;;
42186;SDS011;27858;51.414;0.018;2023-08-12T04:28:26;9.20;;;4.72;;
42186;SDS011;27858;51.414;0.018;2023-08-12T04:30:53;8.43;;;4.53;;
42186;SDS011;27858;51.414;0.018;2023-08-12T04:33:20;7.88;;;3.67;;
42186;SDS011;27858;51.414;0.018;2023-08-12T04:35:47;13.55;;;3.20;;
42186;SDS011;27858;51.414;0.018;2023-08-12T04:38:13;6.38;;;3.80;;
42186;SDS011;27858;51.414;0.018;2023-08-12T04:40:41;14.25;;;4.95;;
42186;SDS011;27858;51.414;0.018;2023-08-12T04:43:08;9.27;;;3.72;;
42186;SDS011;27858;51.414;0.018;2023-08-12T04:45:35;4.70;;;3.13;;
42186;SDS011;27858;51.414;0.018;2023-08-12T04:48:02;11.35;;;4.95;;
42186;SDS011;27858;51.414;0.018;2023-08-12T04:50:30;12.07;;;4.55;;
42186;SDS011;27858;51.414;0.018;2023-08-12T04:52:57;9.73;;;4.30;;
42186;SDS011;27858;51.414;0.018;2023-08-12T04:55:24;8.32;;;4.78;;
42186;SDS011;27858;51.414;0.018;2023-08-12T04:57:51;12.07;;;4.07;;
42186;SDS011;27858;51.414;0.018;2023-08-12T05:00:20;8.60;;;4.15;;
42186;SDS011;27858;51.414;0.018;2023-08-12T05:02:47;8.55;;;4.03;;
42186;SDS011;27858;51.414;0.018;2023-08-12T05:05:14;6.75;;;4.13;;
42186;SDS011;27858;51.414;0.018;2023-08-12T05:07:41;5.22;;;2.90;;
42186;SDS011;27858;51.414;0.018;2023-08-12T05:10:10;7.50;;;3.15;;
42186;SDS011;27858;51.414;0.018;2023-08-12T05:12:37;5.18;;;3.03;;
42186;SDS011;27858;51.414;0.018;2023-08-12T05:15:04;10.95;;;3.80;;
42186;SDS011;27858;51.414;0.018;2023-08-12T05:17:31;6.60;;;2.65;;
42186;SDS011;27858;51.414;0.018;2023-08-12T05:19:58;5.55;;;2.40;;
42186;SDS011;27858;51.414;0.018;2023-08-12T05:22:24;12.85;;;3.83;;
42186;SDS011;27858;51.414;0.018;2023-08-12T05:24:51;5.85;;;2.58;;
42186;SDS011;27858;51.414;0.018;2023-08-12T05:27:18;8.43;;;2.88;;
42186;SDS011;27858;51.414;0.018;2023-08-12T05:29:44;3.92;;;2.72;;
42186;SDS011;27858;51.414;0.018;2023-08-12T05:32:11;10.57;;;2.80;;
42186;SDS011;27858;51.414;0.018;2023-08-12T05:34:39;6.07;;;2.90;;
42186;SDS011;27858;51.414;0.018;2023-08-12T05:37:05;5.80;;;2.00;;
42186;SDS011;27858;51.414;0.018;2023-08-12T05:39:32;8.10;;;2.63;;
42186;SDS011;27858;51.414;0.018;2023-08-12T05:41:59;7.95;;;2.83;;
42186;SDS011;27858;51.414;0.018;2023-08-12T05:44:26;5.32;;;2.30;;
42186;SDS011;27858;51.414;0.018;2023-08-12T05:46:52;9.38;;;3.28;;
42186;SDS011;27858;51.414;0.018;2023-08-12T05:49:19;6.85;;;2.97;;
42186;SDS011;27858;51.414;0.018;2023-08-12T05:51:46;6.45;;;2.22;;
42186;SDS011;27858;51.414;0.018;2023-08-12T05:54:13;7.20;;;2.88;;
42186;SDS011;27858;51.414;0.018;2023-08-12T05:56:39;7.13;;;2.72;;
42186;SDS011;27858;51.414;0.018;2023-08-12T05:59:06;5.45;;;2.65;;
42186;SDS011;27858;51.414;0.018;2023-08-12T06:01:33;5.22;;;2.38;;
42186;SDS011;27858;51.414;0.018;2023-08-12T06:04:00;9.70;;;2.47;;
42186;SDS011;27858;51.414;0.018;2023-08-12T06:06:27;4.18;;;2.08;;
42186;SDS011;27858;51.414;0.018;2023-08-12T06:08:53;14.18;;;3.80;;
42186;SDS011;27858;51.414;0.018;2023-08-12T06:11:20;12.02;;;3.25;;
42186;SDS011;27858;51.414;0.018;2023-08-12T06:13:47;9.10;;;2.53;;
42186;SDS011;27858;51.414;0.018;2023-08-12T06:16:14;5.90;;;3.05;;
42186;SDS011;27858;51.414;0.018;2023-08-12T06:18:40;7.32;;;2.05;;
42186;SDS011;27858;51.414;0.018;2023-08-12T06:21:07;7.72;;;2.80;;
42186;SDS011;27858;51.414;0.018;2023-08-12T06:23:34;6.82;;;2.35;;
42186;SDS011;27858;51.414;0.018;2023-08-12T06:26:01;9.95;;;2.70;;
42186;SDS011;27858;51.414;0.018;2023-08-12T06:28:28;11.57;;;2.72;;
42186;SDS011;27858;51.414;0.018;2023-08-12T06:30:55;6.00;;;2.22;;
42186;SDS011;27858;51.414;0.018;2023-08-12T06:33:21;8.25;;;2.65;;
42186;SDS011;27858;51.414;0.018;2023-08-12T06:35:49;9.73;;;2.33;;
42186;SDS011;27858;51.414;0.018;2023-08-12T06:38:17;11.15;;;2.40;;
42186;SDS011;27858;51.414;0.018;2023-08-12T06:40:43;6.18;;;2.72;;
42186;SDS011;27858;51.414;0.018;2023-08-12T06:43:10;8.98;;;2.67;;
42186;SDS011;27858;51.414;0.018;2023-08-12T06:45:37;7.18;;;2.55;;
42186;SDS011;27858;51.414;0.018;2023-08-12T06:48:04;6.00;;;2.65;;
42186;SDS011;27858;51.414;0.018;2023-08-12T06:50:31;8.73;;;2.72;;
42186;SDS011;27858;51.414;0.018;2023-08-12T06:52:59;10.93;;;2.75;;
42186;SDS011;27858;51.414;0.018;2023-08-12T06:55:26;8.70;;;2.95;;
42186;SDS011;27858;51.414;0.018;2023-08-12T06:57:53;14.13;;;3.25;;
42186;SDS011;27858;51.414;0.018;2023-08-12T07:00:19;5.70;;;2.22;;
42186;SDS011;27858;51.414;0.018;2023-08-12T07:02:46;8.70;;;3.08;;
42186;SDS011;27858;51.414;0.018;2023-08-12T07:05:13;12.10;;;3.90;;
42186;SDS011;27858;51.414;0.018;2023-08-12T07:07:40;10.98;;;2.85;;
42186;SDS011;27858;51.414;0.018;2023-08-12T07:10:07;10.25;;;2.60;;
42186;SDS011;27858;51.414;0.018;2023-08-12T07:12:34;7.88;;;2.42;;
42186;SDS011;27858;51.414;0.018;2023-08-12T07:15:01;5.43;;;2.45;;
42186;SDS011;27858;51.414;0.018;2023-08-12T07:17:28;8.25;;;2.78;;
42186;SDS011;27858;51.414;0.018;2023-08-12T07:19:55;18.25;;;5.45;;
42186;SDS011;27858;51.414;0.018;2023-08-12T07:22:22;9.68;;;3.00;;
42186;SDS011;27858;51.414;0.018;2023-08-12T07:24:49;8.57;;;2.85;;
42186;SDS011;27858;51.414;0.018;2023-08-12T07:27:15;5.38;;;2.50;;
42186;SDS011;27858;51.414;0.018;2023-08-12T07:29:42;11.70;;;3.25;;
42186;SDS011;27858;51.414;0.018;2023-08-12T07:32:09;7.43;;;2.55;;
42186;SDS011;27858;51.414;0.018;2023-08-12T07:34:36;9.85;;;2.47;;
42186;SDS011;27858;51.414;0.018;2023-08-12T07:37:03;6.82;;;2.63;;
42186;SDS011;27858;51.414;0.018;2023-08-12T07:39:30;10.52;;;3.20;;
42186;SDS011;27858;51.414;0.018;2023-08-12T07:41:58;8.55;;;3.00;;
42186;SDS011;27858;51.414;0.018;2023-08-12T07:44:24;9.15;;;2.70;;
42186;SDS011;27858;51.414;0.018;2023-08-12T07:46:51;13.70;;;3.42;;
42186;SDS011;27858;51.414;0.018;2023-08-12T07:49:18;6.55;;;2.28;;
42186;SDS011;27858;51.414;0.018;2023-08-12T07:51:45;13.90;;;3.38;;
42186;SDS011;27858;51.414;0.018;2023-08-12T07:54:12;9.85;;;3.10;;
42186;SDS011;27858;51.414;0.018;2023-08-12T07:56:39;7.65;;;2.92;;
42186;SDS011;27858;51.414;0.018;2023-08-12T07:59:05;14.50;;;3.50;;
42186;SDS011;27858;51.414;0.018;2023-08-12T08:01:32;7.82;;;2.53;;
42186;SDS011;27858;51.414;0.018;2023-08-12T08:04:03;7.93;;;2.70;;
42186;SDS011;27858;51.414;0.018;2023-08-12T08:06:30;11.25;;;2.15;;
42186;SDS011;27858;51.414;0.018;2023-08-12T08:08:57;9.85;;;2.30;;
42186;SDS011;27858;51.414;0.018;2023-08-12T08:11:24;11.43;;;2.50;;
42186;SDS011;27858;51.414;0.018;2023-08-12T08:13:50;6.93;;;2.53;;
42186;SDS011;27858;51.414;0.018;2023-08-12T08:16:17;10.48;;;2.50;;
42186;SDS011;27858;51.414;0.018;2023-08-12T08:18:44;6.90;;;2.08;;
42186;SDS011;27858;51.414;0.018;2023-08-12T08:21:11;15.63;;;3.33;;
42186;SDS011;27858;51.414;0.018;2023-08-12T08:23:40;16.48;;;3.33;;
42186;SDS011;27858;51.414;0.018;2023-08-12T08:26:08;19.95;;;3.50;;
42186;SDS011;27858;51.414;0.018;2023-08-12T08:28:35;9.18;;;2.72;;
42186;SDS011;27858;51.414;0.018;2023-08-12T08:31:03;7.40;;;2.42;;
42186;SDS011;27858;51.414;0.018;2023-08-12T08:33:30;7.65;;;2.35;;
42186;SDS011;27858;51.414;0.018;2023-08-12T08:35:57;9.43;;;2.22;;
42186;SDS011;27858;51.414;0.018;2023-08-12T08:38:24;11.07;;;2.50;;
42186;SDS011;27858;51.414;0.018;2023-08-12T08:40:50;11.25;;;3.17;;
42186;SDS011;27858;51.414;0.018;2023-08-12T08:43:21;6.78;;;2.90;;
42186;SDS011;27858;51.414;0.018;2023-08-12T08:45:52;16.42;;;2.60;;
42186;SDS011;27858;51.414;0.018;2023-08-12T08:48:19;11.80;;;2.20;;
42186;SDS011;27858;51.414;0.018;2023-08-12T08:50:48;11.43;;;3.08;;
42186;SDS011;27858;51.414;0.018;2023-08-12T08:53:15;9.40;;;2.08;;
42186;SDS011;27858;51.414;0.018;2023-08-12T08:55:43;8.00;;;2.67;;
42186;SDS011;27858;51.414;0.018;2023-08-12T08:58:10;6.35;;;2.10;;
42186;SDS011;27858;51.414;0.018;2023-08-12T09:00:46;8.82;;;2.75;;
42186;SDS011;27858;51.414;0.018;2023-08-12T09:03:13;11.52;;;3.40;;
42186;SDS011;27858;51.414;0.018;2023-08-12T09:05:40;11.85;;;3.22;;
42186;SDS011;27858;51.414;0.018;2023-08-12T09:08:09;9.30;;;2.60;;
42186;SDS011;27858;51.414;0.018;2023-08-12T09:10:38;7.47;;;2.97;;
42186;SDS011;27858;51.414;0.018;2023-08-12T09:13:06;15.40;;;3.00;;
42186;SDS011;27858;51.414;0.018;2023-08-12T09:15:35;11.88;;;2.95;;
42186;SDS011;27858;51.414;0.018;2023-08-12T09:18:04;11.85;;;2.53;;
42186;SDS011;27858;51.414;0.018;2023-08-12T09:20:33;8.95;;;2.58;;
42186;SDS011;27858;51.414;0.018;2023-08-12T09:23:00;6.82;;;2.25;;
42186;SDS011;27858;51.414;0.018;2023-08-12T09:25:27;10.43;;;2.78;;
42186;SDS011;27858;51.414;0.018;2023-08-12T09:27:57;11.88;;;2.70;;
42186;SDS011;27858;51.414;0.018;2023-08-12T09:30:28;20.17;;;2.33;;
42186;SDS011;27858;51.414;0.018;2023-08-12T09:33:03;8.45;;;2.03;;
42186;SDS011;27858;51.414;0.018;2023-08-12T09:35:37;5.93;;;2.30;;
42186;SDS011;27858;51.414;0.018;2023-08-12T09:38:06;11.98;;;2.75;;
42186;SDS011;27858;51.414;0.018;2023-08-12T09:40:34;8.00;;;2.05;;
42186;SDS011;27858;51.414;0.018;2023-08-12T09:43:02;11.73;;;2.78;;
42186;SDS011;27858;51.414;0.018;2023-08-12T09:45:30;6.45;;;2.22;;
42186;SDS011;27858;51.414;0.018;2023-08-12T09:47:58;5.45;;;2.20;;
42186;SDS011;27858;51.414;0.018;2023-08-12T09:50:26;6.95;;;2.58;;
42186;SDS011;27858;51.414;0.018;2023-08-12T09:52:53;6.72;;;2.40;;
42186;SDS011;27858;51.414;0.018;2023-08-12T09:55:22;8.38;;;1.80;;
42186;SDS011;27858;51.414;0.018;2023-08-12T09:57:51;11.18;;;2.60;;
42186;SDS011;27858;51.414;0.018;2023-08-12T10:00:20;13.27;;;2.75;;
42186;SDS011;27858;51.414;0.018;2023-08-12T10:02:50;7.40;;;3.15;;
42186;SDS011;27858;51.414;0.018;2023-08-12T10:05:22;8.35;;;2.92;;
42186;SDS011;27858;51.414;0.018;2023-08-12T10:07:52;8.68;;;2.88;;
42186;SDS011;27858;51.414;0.018;2023-08-12T10:10:20;8.10;;;3.28;;
42186;SDS011;27858;51.414;0.018;2023-08-12T10:12:48;7.63;;;2.40;;
42186;SDS011;27858;51.414;0.018;2023-08-12T10:15:16;13.75;;;2.17;;
42186;SDS011;27858;51.414;0.018;2023-08-12T10:17:43;8.10;;;2.30;;
42186;SDS011;27858;51.414;0.018;2023-08-12T10:20:14;6.95;;;2.42;;
42186;SDS011;27858;51.414;0.018;2023-08-12T10:22:46;12.15;;;4.85;;
42186;SDS011;27858;51.414;0.018;2023-08-12T10:25:13;9.13;;;3.03;;
42186;SDS011;27858;51.414;0.018;2023-08-12T10:27:41;8.77;;;3.55;;
42186;SDS011;27858;51.414;0.018;2023-08-12T10:30:08;14.10;;;4.45;;
42186;SDS011;27858;51.414;0.018;2023-08-12T10:32:35;13.70;;;5.47;;
42186;SDS011;27858;51.414;0.018;2023-08-12T10:35:03;11.05;;;4.85;;
42186;SDS011;27858;51.414;0.018;2023-08-12T10:37:32;14.80;;;7.47;;
42186;SDS011;27858;51.414;0.018;2023-08-12T10:40:02;12.75;;;5.70;;
42186;SDS011;27858;51.414;0.018;2023-08-12T10:42:39;18.42;;;7.72;;
42186;SDS011;27858;51.414;0.018;2023-08-12T10:45:11;18.75;;;5.22;;
42186;SDS011;27858;51.414;0.018;2023-08-12T10:47:39;8.63;;;2.67;;
42186;SDS011;27858;51.414;0.018;2023-08-12T10:50:16;7.53;;;2.90;;
42186;SDS011;27858;51.414;0.018;2023-08-12T10:52:44;16.35;;;6.03;;
42186;SDS011;27858;51.414;0.018;2023-08-12T10:55:19;10.93;;;3.35;;
42186;SDS011;27858;51.414;0.018;2023-08-12T10:57:50;7.97;;;3.30;;
42186;SDS011;27858;51.414;0.018;2023-08-12T11:00:25;12.38;;;3.95;;
42186;SDS011;27858;51.414;0.018;2023-08-12T11:02:53;8.88;;;3.47;;
42186;SDS011;27858;51.414;0.018;2023-08-12T11:05:24;13.63;;;3.17;;
42186;SDS011;27858;51.414;0.018;2023-08-12T11:08:01;6.82;;;2.70;;
42186;SDS011;27858;51.414;0.018;2023-08-12T11:10:30;10.55;;;3.78;;
42186;SDS011;27858;51.414;0.018;2023-08-12T11:13:00;5.35;;;2.50;;
42186;SDS011;27858;51.414;0.018;2023-08-12T11:15:35;7.03;;;2.55;;
42186;SDS011;27858;51.414;0.018;2023-08-12T11:18:05;9.27;;;2.50;;
42186;SDS011;27858;51.414;0.018;2023-08-12T11:20:36;13.27;;;2.90;;
42186;SDS011;27858;51.414;0.018;2023-08-12T11:23:03;19.90;;;2.90;;
42186;SDS011;27858;51.414;0.018;2023-08-12T11:25:31;4.13;;;2.33;;
42186;SDS011;27858;51.414;0.018;2023-08-12T11:27:59;7.82;;;2.25;;
42186;SDS011;27858;51.414;0.018;2023-08-12T11:30:27;14.88;;;3.00;;
42186;SDS011;27858;51.414;0.018;2023-08-12T11:32:58;5.30;;;2.08;;
42186;SDS011;27858;51.414;0.018;2023-08-12T11:35:25;7.20;;;2.97;;
42186;SDS011;27858;51.414;0.018;2023-08-12T11:37:55;10.10;;;2.65;;
42186;SDS011;27858;51.414;0.018;2023-08-12T11:40:24;5.25;;;2.53;;
42186;SDS011;27858;51.414;0.018;2023-08-12T11:42:53;8.20;;;2.17;;
42186;SDS011;27858;51.414;0.018;2023-08-12T11:45:22;17.80;;;3.22;;
42186;SDS011;27858;51.414;0.018;2023-08-12T11:47:51;10.25;;;2.60;;
42186;SDS011;27858;51.414;0.018;2023-08-12T11:50:25;10.30;;;2.60;;
42186;SDS011;27858;51.414;0.018;2023-08-12T11:52:53;7.97;;;2.10;;
42186;SDS011;27858;51.414;0.018;2023-08-12T11:55:22;5.72;;;1.73;;
42186;SDS011;27858;51.414;0.018;2023-08-12T11:57:50;4.88;;;1.65;;
42186;SDS011;27858;51.414;0.018;2023-08-12T12:00:17;4.70;;;1.40;;
42186;SDS011;27858;51.414;0.018;2023-08-12T12:02:46;3.90;;;1.15;;
42186;SDS011;27858;51.414;0.018;2023-08-12T12:07:49;5.68;;;1.92;;
42186;SDS011;27858;51.414;0.018;2023-08-12T12:12:54;4.88;;;2.25;;
42186;SDS011;27858;51.414;0.018;2023-08-12T12:15:21;4.75;;;2.22;;
42186;SDS011;27858;51.414;0.018;2023-08-12T12:17:48;6.40;;;1.67;;
42186;SDS011;27858;51.414;0.018;2023-08-12T12:20:17;3.72;;;1.73;;
42186;SDS011;27858;51.414;0.018;2023-08-12T12:22:44;5.68;;;1.85;;
42186;SDS011;27858;51.414;0.018;2023-08-12T12:25:13;9.07;;;2.38;;
42186;SDS011;27858;51.414;0.018;2023-08-12T12:27:42;6.90;;;2.20;;
42186;SDS011;27858;51.414;0.018;2023-08-12T12:30:12;8.20;;;2.00;;
42186;SDS011;27858;51.414;0.018;2023-08-12T12:32:40;10.60;;;1.88;;
42186;SDS011;27858;51.414;0.018;2023-08-12T12:35:07;15.05;;;2.05;;
42186;SDS011;27858;51.414;0.018;2023-08-12T12:37:34;4.90;;;1.92;;
42186;SDS011;27858;51.414;0.018;2023-08-12T12:40:02;7.10;;;1.65;;
42186;SDS011;27858;51.414;0.018;2023-08-12T12:42:30;6.03;;;2.17;;
42186;SDS011;27858;51.414;0.018;2023-08-12T12:44:57;6.25;;;2.20;;
42186;SDS011;27858;51.414;0.018;2023-08-12T12:47:24;5.65;;;1.85;;
42186;SDS011;27858;51.414;0.018;2023-08-12T12:49:51;8.27;;;2.45;;
42186;SDS011;27858;51.414;0.018;2023-08-12T12:52:17;7.85;;;2.08;;
42186;SDS011;27858;51.414;0.018;2023-08-12T12:54:44;5.05;;;1.45;;
42186;SDS011;27858;51.414;0.018;2023-08-12T12:57:11;3.75;;;1.80;;
42186;SDS011;27858;51.414;0.018;2023-08-12T12:59:38;7.40;;;2.00;;
42186;SDS011;27858;51.414;0.018;2023-08-12T13:02:04;5.43;;;2.17;;
42186;SDS011;27858;51.414;0.018;2023-08-12T13:04:31;3.00;;;1.27;;
42186;SDS011;27858;51.414;0.018;2023-08-12T13:06:58;5.75;;;1.92;;
42186;SDS011;27858;51.414;0.018;2023-08-12T13:09:25;7.85;;;1.92;;
42186;SDS011;27858;51.414;0.018;2023-08-12T13:11:52;8.57;;;1.95;;
42186;SDS011;27858;51.414;0.018;2023-08-12T13:14:19;5.75;;;1.70;;
42186;SDS011;27858;51.414;0.018;2023-08-12T13:16:47;8.25;;;1.77;;
42186;SDS011;27858;51.414;0.018;2023-08-12T13:19:14;5.80;;;1.73;;
42186;SDS011;27858;51.414;0.018;2023-08-12T13:21:41;9.10;;;1.75;;
42186;SDS011;27858;51.414;0.018;2023-08-12T13:24:08;7.20;;;2.13;;
42186;SDS011;27858;51.414;0.018;2023-08-12T13:26:35;7.32;;;1.63;;
42186;SDS011;27858;51.414;0.018;2023-08-12T13:29:01;8.18;;;2.28;;
42186;SDS011;27858;51.414;0.018;2023-08-12T13:31:28;8.27;;;1.73;;
42186;SDS011;27858;51.414;0.018;2023-08-12T13:33:55;7.68;;;2.00;;
42186;SDS011;27858;51.414;0.018;2023-08-12T13:36:22;4.90;;;1.90;;
42186;SDS011;27858;51.414;0.018;2023-08-12T13:38:49;11.05;;;2.20;;
42186;SDS011;27858;51.414;0.018;2023-08-12T13:41:16;8.13;;;1.65;;
42186;SDS011;27858;51.414;0.018;2023-08-12T13:43:43;6.63;;;1.95;;
42186;SDS011;27858;51.414;0.018;2023-08-12T13:46:10;5.65;;;2.08;;
42186;SDS011;27858;51.414;0.018;2023-08-12T13:48:36;3.67;;;1.63;;
42186;SDS011;27858;51.414;0.018;2023-08-12T13:51:03;7.13;;;2.20;;
42186;SDS011;27858;51.414;0.018;2023-08-12T13:53:30;6.78;;;1.73;;
42186;SDS011;27858;51.414;0.018;2023-08-12T13:55:57;7.78;;;2.17;;
42186;SDS011;27858;51.414;0.018;2023-08-12T13:58:23;9.57;;;2.25;;
42186;SDS011;27858;51.414;0.018;2023-08-12T14:00:50;10.68;;;2.50;;
42186;SDS011;27858;51.414;0.018;2023-08-12T14:03:17;7.72;;;2.38;;
42186;SDS011;27858;51.414;0.018;2023-08-12T14:05:44;6.57;;;2.13;;
42186;SDS011;27858;51.414;0.018;2023-08-12T14:08:11;7.55;;;2.30;;
42186;SDS011;27858;51.414;0.018;2023-08-12T14:10:38;11.98;;;2.60;;
42186;SDS011;27858;51.414;0.018;2023-08-12T14:13:05;9.70;;;2.10;;
42186;SDS011;27858;51.414;0.018;2023-08-12T14:15:33;5.80;;;2.05;;
42186;SDS011;27858;51.414;0.018;2023-08-12T14:18:00;6.95;;;1.90;;
42186;SDS011;27858;51.414;0.018;2023-08-12T14:20:27;6.63;;;1.88;;
42186;SDS011;27858;51.414;0.018;2023-08-12T14:22:53;4.40;;;1.70;;
42186;SDS011;27858;51.414;0.018;2023-08-12T14:25:20;2.22;;;1.25;;
42186;SDS011;27858;51.414;0.018;2023-08-12T14:27:47;20.42;;;2.90;;
42186;SDS011;27858;51.414;0.018;2023-08-12T14:30:14;10.75;;;2.88;;
42186;SDS011;27858;51.414;0.018;2023-08-12T14:32:44;12.65;;;2.90;;
42186;SDS011;27858;51.414;0.018;2023-08-12T14:35:10;8.43;;;2.28;;
42186;SDS011;27858;51.414;0.018;2023-08-12T14:37:37;4.38;;;1.77;;
42186;SDS011;27858;51.414;0.018;2023-08-12T14:40:04;10.10;;;2.72;;
42186;SDS011;27858;51.414;0.018;2023-08-12T14:42:32;8.73;;;2.28;;
42186;SDS011;27858;51.414;0.018;2023-08-12T14:44:58;7.03;;;1.98;;
42186;SDS011;27858;51.414;0.018;2023-08-12T14:47:25;11.88;;;2.28;;
42186;SDS011;27858;51.414;0.018;2023-08-12T14:49:52;5.68;;;2.30;;
42186;SDS011;27858;51.414;0.018;2023-08-12T14:52:20;17.38;;;3.00;;
42186;SDS011;27858;51.414;0.018;2023-08-12T14:54:47;6.43;;;2.65;;
42186;SDS011;27858;51.414;0.018;2023-08-12T14:57:14;14.55;;;2.97;;